Terminal Aerodrome Forecast
Issued by NWS

Home | Current Version | Previous Version | Text Only | Print | Product List | Glossary On
Versions: 1 2 3 4 5 6 7 8 9 10 11 12 13 14 15 16 17 18 19 20 21
656
FTUS43 KDLH 272014 AAA
TAFHIB
TAF AMD
KHIB 272014Z 2720/2818 08006KT P6SM SCT015 SCT070
     FM280000 VRB03KT P6SM SCT040
     FM280600 00000KT 3SM BR SCT010
      TEMPO 2808/2812 1/2SM FG SCT004
     FM281200 07006KT P6SM SCT040=

USA.gov is the U.S. government's official web portal to all federal, state and local government web resources and services.